sensor_id;sensor_type;location;lat;lon;timestamp;pressure;altitude;pressure_sealevel;temperature;humidity
22775;BME280;11554;51.106;3.684;2023-02-18T00:00:00;102351.31;;;10.02;100.0
22775;BME280;11554;51.106;3.684;2023-02-18T00:05:00;102344.87000000001;;;10.04;100.0
22775;BME280;11554;51.106;3.684;2023-02-18T00:10:00;102338.92;;;10.03;100.0
22775;BME280;11554;51.106;3.684;2023-02-18T00:15:00;102335.08;;;10.04;100.0
22775;BME280;11554;51.106;3.684;2023-02-18T00:20:00;102343.25;;;10.04;100.0
22775;BME280;11554;51.106;3.684;2023-02-18T00:25:00;102333.67;;;10.06;100.0
22775;BME280;11554;51.106;3.684;2023-02-18T00:30:00;102322.53;;;10.05;100.0
22775;BME280;11554;51.106;3.684;2023-02-18T00:35:00;102313.48000000001;;;10.05;100.0
22775;BME280;11554;51.106;3.684;2023-02-18T00:40:00;102322.42;;;10.04;100.0
22775;BME280;11554;51.106;3.684;2023-02-18T00:45:00;102309.84;;;10.03;100.0
22775;BME280;11554;51.106;3.684;2023-02-18T00:50:00;102299.87999999999;;;10.03;100.0
22775;BME280;11554;51.106;3.684;2023-02-18T00:55:00;102298.17;;;10.02;100.0
22775;BME280;11554;51.106;3.684;2023-02-18T01:00:00;102293.75;;;10.01;100.0
22775;BME280;11554;51.106;3.684;2023-02-18T01:05:00;102296.93;;;10.02;100.0
22775;BME280;11554;51.106;3.684;2023-02-18T01:10:00;102290.14;;;10.02;100.0
22775;BME280;11554;51.106;3.684;2023-02-18T01:15:00;102289.75;;;10.02;100.0
22775;BME280;11554;51.106;3.684;2023-02-18T01:20:00;102291.76;;;10.01;100.0
22775;BME280;11554;51.106;3.684;2023-02-18T01:25:00;102288.65;;;10.00;100.0
22775;BME280;11554;51.106;3.684;2023-02-18T01:30:00;102283.12;;;9.99;100.0
22775;BME280;11554;51.106;3.684;2023-02-18T01:35:00;102274.79;;;9.99;100.0
22775;BME280;11554;51.106;3.684;2023-02-18T01:40:00;102269.61;;;9.97;100.0
22775;BME280;11554;51.106;3.684;2023-02-18T01:50:00;102268.38;;;9.94;100.0
22775;BME280;11554;51.106;3.684;2023-02-18T01:55:00;102271.22;;;9.93;100.0
22775;BME280;11554;51.106;3.684;2023-02-18T02:00:02;102260.68000000001;;;9.91;100.0
22775;BME280;11554;51.106;3.684;2023-02-18T02:05:00;102265.47;;;9.91;100.0
22775;BME280;11554;51.106;3.684;2023-02-18T02:10:00;102263.34000000001;;;9.90;100.0
22775;BME280;11554;51.106;3.684;2023-02-18T02:15:05;102254.58;;;9.89;100.0
22775;BME280;11554;51.106;3.684;2023-02-18T02:25:07;102237.36;;;9.87;100.0
22775;BME280;11554;51.106;3.684;2023-02-18T02:35:00;102229.92;;;9.88;100.0
22775;BME280;11554;51.106;3.684;2023-02-18T02:40:03;102225.18;;;9.87;100.0
22775;BME280;11554;51.106;3.684;2023-02-18T02:45:01;102224.31;;;9.85;100.0
22775;BME280;11554;51.106;3.684;2023-02-18T02:50:00;102216.89;;;9.84;100.0
22775;BME280;11554;51.106;3.684;2023-02-18T02:55:00;102213.85;;;9.84;100.0
22775;BME280;11554;51.106;3.684;2023-02-18T03:00:00;102205.72;;;9.84;100.0
22775;BME280;11554;51.106;3.684;2023-02-18T03:05:06;102195.5;;;9.83;100.0
22775;BME280;11554;51.106;3.684;2023-02-18T03:10:06;102195.0;;;9.82;100.0
22775;BME280;11554;51.106;3.684;2023-02-18T03:15:03;102188.78;;;9.80;100.0
22775;BME280;11554;51.106;3.684;2023-02-18T03:20:03;102193.91;;;9.77;100.0
22775;BME280;11554;51.106;3.684;2023-02-18T03:25:00;102175.75;;;9.75;100.0
22775;BME280;11554;51.106;3.684;2023-02-18T03:30:00;102168.98;;;9.73;100.0
22775;BME280;11554;51.106;3.684;2023-02-18T03:35:01;102165.34;;;9.73;100.0
22775;BME280;11554;51.106;3.684;2023-02-18T03:40:00;102162.0;;;9.71;100.0
22775;BME280;11554;51.106;3.684;2023-02-18T03:45:00;102141.33;;;9.70;100.0
22775;BME280;11554;51.106;3.684;2023-02-18T03:50:00;102129.64;;;9.69;100.0
22775;BME280;11554;51.106;3.684;2023-02-18T03:55:00;102129.19;;;9.70;100.0
22775;BME280;11554;51.106;3.684;2023-02-18T04:00:00;102124.75;;;9.72;100.0
22775;BME280;11554;51.106;3.684;2023-02-18T04:05:00;102114.87;;;9.72;100.0
22775;BME280;11554;51.106;3.684;2023-02-18T04:10:00;102110.56999999999;;;9.72;100.0
22775;BME280;11554;51.106;3.684;2023-02-18T04:15:00;102126.70000000001;;;9.74;100.0
22775;BME280;11554;51.106;3.684;2023-02-18T04:20:00;102131.76999999999;;;9.72;100.0
22775;BME280;11554;51.106;3.684;2023-02-18T04:25:00;102128.63;;;9.72;100.0
22775;BME280;11554;51.106;3.684;2023-02-18T04:30:00;102134.79999999999;;;9.70;100.0
22775;BME280;11554;51.106;3.684;2023-02-18T04:35:00;102135.08;;;9.67;100.0
22775;BME280;11554;51.106;3.684;2023-02-18T04:40:00;102134.44;;;9.62;100.0
22775;BME280;11554;51.106;3.684;2023-02-18T04:45:00;102140.01;;;9.59;100.0
22775;BME280;11554;51.106;3.684;2023-02-18T04:50:00;102140.55;;;9.55;100.0
22775;BME280;11554;51.106;3.684;2023-02-18T04:55:00;102135.97;;;9.52;100.0
22775;BME280;11554;51.106;3.684;2023-02-18T05:00:00;102122.63;;;9.49;100.0
22775;BME280;11554;51.106;3.684;2023-02-18T05:05:00;102112.13;;;9.47;100.0
22775;BME280;11554;51.106;3.684;2023-02-18T05:10:00;102119.58;;;9.44;100.0
22775;BME280;11554;51.106;3.684;2023-02-18T05:15:00;102101.86;;;9.43;100.0
22775;BME280;11554;51.106;3.684;2023-02-18T05:20:00;102131.72;;;9.39;100.0
22775;BME280;11554;51.106;3.684;2023-02-18T05:25:00;102116.97;;;9.36;100.0
22775;BME280;11554;51.106;3.684;2023-02-18T05:30:00;102121.61;;;9.34;100.0
22775;BME280;11554;51.106;3.684;2023-02-18T05:35:00;102118.52;;;9.33;100.0
22775;BME280;11554;51.106;3.684;2023-02-18T05:40:00;102109.47;;;9.31;100.0
22775;BME280;11554;51.106;3.684;2023-02-18T05:45:00;102107.11;;;9.31;100.0
22775;BME280;11554;51.106;3.684;2023-02-18T05:50:00;102102.22;;;9.30;100.0
22775;BME280;11554;51.106;3.684;2023-02-18T05:55:00;102082.33;;;9.30;100.0
22775;BME280;11554;51.106;3.684;2023-02-18T06:00:00;102080.3;;;9.27;100.0
22775;BME280;11554;51.106;3.684;2023-02-18T06:05:00;102070.01000000001;;;9.26;100.0
22775;BME280;11554;51.106;3.684;2023-02-18T06:10:00;102072.82;;;9.29;100.0
22775;BME280;11554;51.106;3.684;2023-02-18T06:15:00;102081.37000000001;;;9.29;100.0
22775;BME280;11554;51.106;3.684;2023-02-18T06:20:00;102085.29999999999;;;9.28;100.0
22775;BME280;11554;51.106;3.684;2023-02-18T06:25:00;102081.52;;;9.30;100.0
22775;BME280;11554;51.106;3.684;2023-02-18T06:30:00;102077.97;;;9.26;100.0
22775;BME280;11554;51.106;3.684;2023-02-18T06:35:00;102070.28;;;9.24;100.0
22775;BME280;11554;51.106;3.684;2023-02-18T06:40:00;102067.83;;;9.24;100.0
22775;BME280;11554;51.106;3.684;2023-02-18T06:45:00;102072.81;;;9.23;100.0
22775;BME280;11554;51.106;3.684;2023-02-18T06:50:00;102071.7;;;9.21;100.0
22775;BME280;11554;51.106;3.684;2023-02-18T06:55:00;102080.51000000001;;;9.21;100.0
22775;BME280;11554;51.106;3.684;2023-02-18T07:00:00;102067.78;;;9.21;100.0
22775;BME280;11554;51.106;3.684;2023-02-18T07:05:00;102080.57;;;9.21;100.0
22775;BME280;11554;51.106;3.684;2023-02-18T07:10:00;102092.48999999999;;;9.23;100.0
22775;BME280;11554;51.106;3.684;2023-02-18T07:15:00;102085.83;;;9.22;100.0
22775;BME280;11554;51.106;3.684;2023-02-18T07:20:00;102095.53;;;9.19;100.0
22775;BME280;11554;51.106;3.684;2023-02-18T07:25:00;102100.7;;;9.20;100.0
22775;BME280;11554;51.106;3.684;2023-02-18T07:30:00;102102.52;;;9.22;100.0
22775;BME280;11554;51.106;3.684;2023-02-18T07:35:00;102098.46;;;9.18;100.0
22775;BME280;11554;51.106;3.684;2023-02-18T07:40:00;102103.51000000001;;;9.18;100.0
22775;BME280;11554;51.106;3.684;2023-02-18T07:45:00;102112.36;;;9.17;100.0
22775;BME280;11554;51.106;3.684;2023-02-18T07:50:00;102125.56;;;9.22;100.0
22775;BME280;11554;51.106;3.684;2023-02-18T07:55:00;102121.68000000001;;;9.35;100.0
22775;BME280;11554;51.106;3.684;2023-02-18T08:00:00;102129.14;;;9.42;100.0
22775;BME280;11554;51.106;3.684;2023-02-18T08:05:00;102124.91;;;9.51;100.0
22775;BME280;11554;51.106;3.684;2023-02-18T08:10:00;102128.5;;;9.59;100.0
22775;BME280;11554;51.106;3.684;2023-02-18T08:15:00;102130.39;;;9.64;100.0
22775;BME280;11554;51.106;3.684;2023-02-18T08:20:00;102137.11;;;9.66;100.0
22775;BME280;11554;51.106;3.684;2023-02-18T08:25:00;102126.2;;;9.75;100.0
22775;BME280;11554;51.106;3.684;2023-02-18T08:30:00;102119.67;;;9.80;100.0
22775;BME280;11554;51.106;3.684;2023-02-18T08:35:00;102134.25;;;9.85;100.0
22775;BME280;11554;51.106;3.684;2023-02-18T08:40:00;102134.43;;;9.89;100.0
22775;BME280;11554;51.106;3.684;2023-02-18T08:45:00;102129.92;;;9.95;100.0
22775;BME280;11554;51.106;3.684;2023-02-18T08:50:00;102130.68;;;10.01;100.0
22775;BME280;11554;51.106;3.684;2023-02-18T08:55:00;102120.31;;;10.05;100.0
22775;BME280;11554;51.106;3.684;2023-02-18T09:00:00;102125.71;;;10.15;100.0
22775;BME280;11554;51.106;3.684;2023-02-18T09:05:00;102127.42;;;10.16;100.0
22775;BME280;11554;51.106;3.684;2023-02-18T09:10:00;102119.17;;;10.29;100.0
22775;BME280;11554;51.106;3.684;2023-02-18T09:15:00;102125.12000000001;;;10.50;100.0
22775;BME280;11554;51.106;3.684;2023-02-18T09:20:00;102130.83;;;10.53;100.0
22775;BME280;11554;51.106;3.684;2023-02-18T09:25:00;102111.1;;;10.56;100.0
22775;BME280;11554;51.106;3.684;2023-02-18T09:30:00;102121.41;;;10.59;100.0
22775;BME280;11554;51.106;3.684;2023-02-18T09:35:00;102133.48;;;10.56;100.0
22775;BME280;11554;51.106;3.684;2023-02-18T09:40:00;102132.45;;;10.58;100.0
22775;BME280;11554;51.106;3.684;2023-02-18T09:45:00;102130.2;;;10.67;100.0
22775;BME280;11554;51.106;3.684;2023-02-18T09:50:03;102120.08;;;10.74;100.0
22775;BME280;11554;51.106;3.684;2023-02-18T09:55:00;102123.46;;;10.83;100.0
22775;BME280;11554;51.106;3.684;2023-02-18T10:00:00;102128.67;;;10.95;100.0
22775;BME280;11554;51.106;3.684;2023-02-18T10:05:00;102126.06;;;10.99;100.0
22775;BME280;11554;51.106;3.684;2023-02-18T10:10:02;102133.11;;;11.03;100.0
22775;BME280;11554;51.106;3.684;2023-02-18T10:15:00;102143.57;;;11.07;100.0
22775;BME280;11554;51.106;3.684;2023-02-18T10:20:00;102144.19;;;11.10;100.0
22775;BME280;11554;51.106;3.684;2023-02-18T10:25:01;102153.97;;;11.15;100.0
22775;BME280;11554;51.106;3.684;2023-02-18T10:30:02;102150.55;;;11.17;100.0
22775;BME280;11554;51.106;3.684;2023-02-18T10:35:02;102162.5;;;11.25;100.0
22775;BME280;11554;51.106;3.684;2023-02-18T10:40:02;102169.55;;;11.18;100.0
22775;BME280;11554;51.106;3.684;2023-02-18T10:45:03;102168.78;;;11.16;100.0
22775;BME280;11554;51.106;3.684;2023-02-18T10:50:01;102174.31;;;11.16;100.0
22775;BME280;11554;51.106;3.684;2023-02-18T10:55:01;102188.72;;;11.23;100.0
22775;BME280;11554;51.106;3.684;2023-02-18T11:00:01;102185.33;;;11.24;100.0
22775;BME280;11554;51.106;3.684;2023-02-18T11:05:00;102179.57;;;11.24;100.0
22775;BME280;11554;51.106;3.684;2023-02-18T11:10:01;102158.76;;;11.34;100.0
22775;BME280;11554;51.106;3.684;2023-02-18T11:15:05;102168.44;;;11.38;100.0
22775;BME280;11554;51.106;3.684;2023-02-18T11:20:00;102163.33;;;11.46;100.0
22775;BME280;11554;51.106;3.684;2023-02-18T11:25:01;102159.69;;;11.58;100.0
22775;BME280;11554;51.106;3.684;2023-02-18T11:30:01;102156.38;;;11.62;100.0
22775;BME280;11554;51.106;3.684;2023-02-18T11:35:00;102158.29;;;11.58;100.0
22775;BME280;11554;51.106;3.684;2023-02-18T11:40:00;102172.61;;;11.55;100.0
22775;BME280;11554;51.106;3.684;2023-02-18T11:45:00;102168.82;;;11.57;100.0
22775;BME280;11554;51.106;3.684;2023-02-18T11:50:03;102169.5;;;11.56;100.0
22775;BME280;11554;51.106;3.684;2023-02-18T11:55:00;102180.14;;;11.52;100.0
22775;BME280;11554;51.106;3.684;2023-02-18T12:00:00;102170.62;;;11.47;100.0
22775;BME280;11554;51.106;3.684;2023-02-18T12:05:01;102179.69;;;11.43;100.0
22775;BME280;11554;51.106;3.684;2023-02-18T12:10:02;102166.44;;;11.41;100.0
22775;BME280;11554;51.106;3.684;2023-02-18T12:15:00;102171.51;;;11.42;100.0
22775;BME280;11554;51.106;3.684;2023-02-18T12:20:09;102166.54999999999;;;11.44;100.0
22775;BME280;11554;51.106;3.684;2023-02-18T12:25:03;102169.83;;;11.51;100.0
22775;BME280;11554;51.106;3.684;2023-02-18T12:35:03;102168.52;;;11.81;100.0
22775;BME280;11554;51.106;3.684;2023-02-18T12:40:02;102169.51000000001;;;11.90;100.0
22775;BME280;11554;51.106;3.684;2023-02-18T12:45:03;102161.86;;;11.93;100.0
22775;BME280;11554;51.106;3.684;2023-02-18T12:50:02;102168.03;;;11.96;100.0
22775;BME280;11554;51.106;3.684;2023-02-18T12:55:07;102152.36;;;12.07;100.0
22775;BME280;11554;51.106;3.684;2023-02-18T13:00:03;102144.37000000001;;;12.25;100.0
22775;BME280;11554;51.106;3.684;2023-02-18T13:05:02;102143.76999999999;;;12.32;100.0
22775;BME280;11554;51.106;3.684;2023-02-18T13:10:05;102145.08;;;12.43;100.0
22775;BME280;11554;51.106;3.684;2023-02-18T13:15:00;102133.69;;;12.54;100.0
22775;BME280;11554;51.106;3.684;2023-02-18T13:20:00;102142.53;;;12.53;100.0
22775;BME280;11554;51.106;3.684;2023-02-18T13:25:00;102142.94;;;12.43;100.0
22775;BME280;11554;51.106;3.684;2023-02-18T13:30:03;102144.17;;;12.19;100.0
22775;BME280;11554;51.106;3.684;2023-02-18T13:35:01;102141.33;;;12.24;100.0
22775;BME280;11554;51.106;3.684;2023-02-18T13:40:00;102138.44;;;12.31;100.0
22775;BME280;11554;51.106;3.684;2023-02-18T13:45:02;102132.68000000001;;;12.38;100.0
22775;BME280;11554;51.106;3.684;2023-02-18T13:50:12;102128.89;;;12.25;100.0
22775;BME280;11554;51.106;3.684;2023-02-18T13:55:00;102131.98999999999;;;12.21;100.0
22775;BME280;11554;51.106;3.684;2023-02-18T14:00:03;102126.34000000001;;;12.33;100.0
22775;BME280;11554;51.106;3.684;2023-02-18T14:10:00;102118.2;;;12.08;100.0
22775;BME280;11554;51.106;3.684;2023-02-18T14:15:00;102116.04999999999;;;12.01;100.0
22775;BME280;11554;51.106;3.684;2023-02-18T14:25:02;102109.33;;;11.79;100.0
22775;BME280;11554;51.106;3.684;2023-02-18T14:30:02;102116.48;;;11.74;100.0
22775;BME280;11554;51.106;3.684;2023-02-18T14:35:05;102111.89;;;11.66;100.0
22775;BME280;11554;51.106;3.684;2023-02-18T14:40:02;102106.2;;;11.66;100.0
22775;BME280;11554;51.106;3.684;2023-02-18T14:45:09;102103.77;;;11.72;100.0
22775;BME280;11554;51.106;3.684;2023-02-18T14:50:00;102108.62;;;11.73;100.0
22775;BME280;11554;51.106;3.684;2023-02-18T14:55:00;102115.47;;;11.60;100.0
22775;BME280;11554;51.106;3.684;2023-02-18T15:00:00;102116.36;;;11.54;100.0
22775;BME280;11554;51.106;3.684;2023-02-18T15:10:00;102097.58;;;11.40;100.0
22775;BME280;11554;51.106;3.684;2023-02-18T15:15:02;102091.13;;;11.41;100.0
22775;BME280;11554;51.106;3.684;2023-02-18T15:20:02;102088.01999999999;;;11.41;100.0
22775;BME280;11554;51.106;3.684;2023-02-18T15:25:00;102096.84;;;11.39;100.0
22775;BME280;11554;51.106;3.684;2023-02-18T15:30:03;102085.56999999999;;;11.34;100.0
22775;BME280;11554;51.106;3.684;2023-02-18T15:35:00;102084.64;;;11.32;100.0
22775;BME280;11554;51.106;3.684;2023-02-18T15:40:00;102089.51;;;11.20;100.0
22775;BME280;11554;51.106;3.684;2023-02-18T15:45:01;102088.08;;;11.15;100.0
22775;BME280;11554;51.106;3.684;2023-02-18T15:50:00;102096.06;;;11.12;100.0
22775;BME280;11554;51.106;3.684;2023-02-18T15:55:00;102095.42;;;11.09;100.0
22775;BME280;11554;51.106;3.684;2023-02-18T16:00:02;102089.9;;;11.06;100.0
22775;BME280;11554;51.106;3.684;2023-02-18T16:05:00;102084.70999999999;;;11.00;100.0
22775;BME280;11554;51.106;3.684;2023-02-18T16:10:12;102090.78;;;10.94;100.0
22775;BME280;11554;51.106;3.684;2023-02-18T16:15:00;102082.06;;;10.90;100.0
22775;BME280;11554;51.106;3.684;2023-02-18T16:20:00;102085.85;;;10.86;100.0
22775;BME280;11554;51.106;3.684;2023-02-18T16:25:01;102096.15;;;10.82;100.0
22775;BME280;11554;51.106;3.684;2023-02-18T16:30:01;102099.73;;;10.79;100.0
22775;BME280;11554;51.106;3.684;2023-02-18T16:35:00;102082.5;;;10.75;100.0
22775;BME280;11554;51.106;3.684;2023-02-18T16:40:00;102088.23999999999;;;10.69;100.0
22775;BME280;11554;51.106;3.684;2023-02-18T16:45:00;102087.06;;;10.65;100.0
22775;BME280;11554;51.106;3.684;2023-02-18T16:50:00;102073.90000000001;;;10.61;100.0
22775;BME280;11554;51.106;3.684;2023-02-18T16:55:00;102074.91;;;10.56;100.0
22775;BME280;11554;51.106;3.684;2023-02-18T17:00:00;102073.87999999999;;;10.51;100.0
22775;BME280;11554;51.106;3.684;2023-02-18T17:05:00;102070.45000000001;;;10.47;100.0
22775;BME280;11554;51.106;3.684;2023-02-18T17:10:00;102071.17;;;10.44;100.0
22775;BME280;11554;51.106;3.684;2023-02-18T17:15:00;102064.81999999999;;;10.42;100.0
22775;BME280;11554;51.106;3.684;2023-02-18T17:20:00;102063.17;;;10.40;100.0
22775;BME280;11554;51.106;3.684;2023-02-18T17:25:00;102055.44;;;10.37;100.0
22775;BME280;11554;51.106;3.684;2023-02-18T17:30:00;102049.42;;;10.34;100.0
22775;BME280;11554;51.106;3.684;2023-02-18T17:35:00;102057.67;;;10.28;100.0
22775;BME280;11554;51.106;3.684;2023-02-18T17:40:00;102060.55;;;10.24;100.0
22775;BME280;11554;51.106;3.684;2023-02-18T17:45:00;102056.25;;;10.19;100.0
22775;BME280;11554;51.106;3.684;2023-02-18T17:50:00;102070.2;;;10.14;100.0
22775;BME280;11554;51.106;3.684;2023-02-18T17:55:00;102072.43;;;10.11;100.0
22775;BME280;11554;51.106;3.684;2023-02-18T18:00:00;102075.87;;;10.07;100.0
22775;BME280;11554;51.106;3.684;2023-02-18T18:05:00;102069.83;;;10.05;100.0
22775;BME280;11554;51.106;3.684;2023-02-18T18:10:00;102068.42;;;10.05;100.0
22775;BME280;11554;51.106;3.684;2023-02-18T18:15:00;102073.89;;;10.04;100.0
22775;BME280;11554;51.106;3.684;2023-02-18T18:20:00;102082.01000000001;;;10.03;100.0
22775;BME280;11554;51.106;3.684;2023-02-18T18:25:00;102085.31;;;10.04;100.0
22775;BME280;11554;51.106;3.684;2023-02-18T18:30:00;102070.94;;;10.03;100.0
22775;BME280;11554;51.106;3.684;2023-02-18T18:35:00;102065.45;;;10.03;100.0
22775;BME280;11554;51.106;3.684;2023-02-18T18:40:00;102072.79999999999;;;10.02;100.0
22775;BME280;11554;51.106;3.684;2023-02-18T18:45:00;102079.71;;;10.02;100.0
22775;BME280;11554;51.106;3.684;2023-02-18T18:50:00;102092.44;;;10.02;100.0
22775;BME280;11554;51.106;3.684;2023-02-18T18:55:00;102097.0;;;10.01;100.0
22775;BME280;11554;51.106;3.684;2023-02-18T19:00:00;102088.34000000001;;;10.00;100.0
22775;BME280;11554;51.106;3.684;2023-02-18T19:05:00;102076.01;;;10.01;100.0
22775;BME280;11554;51.106;3.684;2023-02-18T19:10:00;102070.62;;;10.00;100.0
22775;BME280;11554;51.106;3.684;2023-02-18T19:15:00;102068.98;;;10.00;100.0
22775;BME280;11554;51.106;3.684;2023-02-18T19:20:00;102068.32;;;9.99;100.0
22775;BME280;11554;51.106;3.684;2023-02-18T19:25:00;102046.01;;;9.98;100.0
22775;BME280;11554;51.106;3.684;2023-02-18T19:30:00;102041.72;;;9.98;100.0
22775;BME280;11554;51.106;3.684;2023-02-18T19:35:00;102048.81;;;9.96;100.0
22775;BME280;11554;51.106;3.684;2023-02-18T19:40:00;102058.5;;;9.96;100.0
22775;BME280;11554;51.106;3.684;2023-02-18T19:45:00;102061.27;;;9.96;100.0
22775;BME280;11554;51.106;3.684;2023-02-18T19:50:00;102059.79999999999;;;9.96;100.0
22775;BME280;11554;51.106;3.684;2023-02-18T19:55:00;102041.58;;;9.95;100.0
22775;BME280;11554;51.106;3.684;2023-02-18T20:00:00;102026.56;;;9.94;100.0
22775;BME280;11554;51.106;3.684;2023-02-18T20:05:00;102008.83;;;9.93;100.0
22775;BME280;11554;51.106;3.684;2023-02-18T20:10:00;102025.01999999999;;;9.93;100.0
22775;BME280;11554;51.106;3.684;2023-02-18T20:15:00;102027.09999999999;;;9.93;100.0
22775;BME280;11554;51.106;3.684;2023-02-18T20:20:00;102022.75;;;9.91;100.0
22775;BME280;11554;51.106;3.684;2023-02-18T20:25:00;102011.19;;;9.91;100.0
22775;BME280;11554;51.106;3.684;2023-02-18T20:30:00;102001.79000000001;;;9.91;100.0
22775;BME280;11554;51.106;3.684;2023-02-18T20:35:00;101997.94;;;9.91;100.0
22775;BME280;11554;51.106;3.684;2023-02-18T20:40:00;101993.08;;;9.91;100.0
22775;BME280;11554;51.106;3.684;2023-02-18T20:45:00;101999.91;;;9.91;100.0
22775;BME280;11554;51.106;3.684;2023-02-18T20:50:00;102000.27;;;9.91;100.0
22775;BME280;11554;51.106;3.684;2023-02-18T20:55:00;102003.27;;;9.91;100.0
22775;BME280;11554;51.106;3.684;2023-02-18T21:00:00;102009.52;;;9.91;100.0
22775;BME280;11554;51.106;3.684;2023-02-18T21:05:00;102031.97;;;9.90;100.0
22775;BME280;11554;51.106;3.684;2023-02-18T21:10:00;102030.62999999999;;;9.92;100.0
22775;BME280;11554;51.106;3.684;2023-02-18T21:15:00;102020.73000000001;;;9.93;100.0
22775;BME280;11554;51.106;3.684;2023-02-18T21:20:00;101987.59;;;9.91;100.0
22775;BME280;11554;51.106;3.684;2023-02-18T21:25:00;101966.94;;;9.91;100.0
22775;BME280;11554;51.106;3.684;2023-02-18T21:30:00;101987.03;;;9.90;100.0
22775;BME280;11554;51.106;3.684;2023-02-18T21:35:00;101987.05;;;9.92;100.0
22775;BME280;11554;51.106;3.684;2023-02-18T21:40:00;101997.14;;;9.92;100.0
22775;BME280;11554;51.106;3.684;2023-02-18T21:45:00;102000.54000000001;;;9.93;100.0
22775;BME280;11554;51.106;3.684;2023-02-18T21:50:00;102012.69;;;9.94;100.0
22775;BME280;11554;51.106;3.684;2023-02-18T21:55:00;102011.98000000001;;;9.95;100.0
22775;BME280;11554;51.106;3.684;2023-02-18T22:00:00;102027.55;;;9.95;100.0
22775;BME280;11554;51.106;3.684;2023-02-18T22:05:00;102030.0;;;9.95;100.0
22775;BME280;11554;51.106;3.684;2023-02-18T22:10:00;102024.39;;;9.96;100.0
22775;BME280;11554;51.106;3.684;2023-02-18T22:15:00;102029.19;;;9.96;100.0
22775;BME280;11554;51.106;3.684;2023-02-18T22:20:00;102035.65;;;9.95;100.0
22775;BME280;11554;51.106;3.684;2023-02-18T22:25:00;102038.58;;;9.95;100.0
22775;BME280;11554;51.106;3.684;2023-02-18T22:30:00;102022.24;;;9.93;100.0
22775;BME280;11554;51.106;3.684;2023-02-18T22:35:00;102028.28;;;9.90;100.0
22775;BME280;11554;51.106;3.684;2023-02-18T22:40:00;102020.84999999999;;;9.85;100.0
22775;BME280;11554;51.106;3.684;2023-02-18T22:45:00;102019.73000000001;;;9.81;100.0
22775;BME280;11554;51.106;3.684;2023-02-18T22:50:00;102023.46;;;9.78;100.0
22775;BME280;11554;51.106;3.684;2023-02-18T22:55:00;102019.84999999999;;;9.74;100.0
22775;BME280;11554;51.106;3.684;2023-02-18T23:00:00;102018.69;;;9.71;100.0
22775;BME280;11554;51.106;3.684;2023-02-18T23:05:00;102013.12000000001;;;9.70;100.0
22775;BME280;11554;51.106;3.684;2023-02-18T23:10:00;102011.72;;;9.69;100.0
22775;BME280;11554;51.106;3.684;2023-02-18T23:15:00;102010.42;;;9.68;100.0
22775;BME280;11554;51.106;3.684;2023-02-18T23:20:00;102010.28;;;9.66;100.0
22775;BME280;11554;51.106;3.684;2023-02-18T23:25:00;102009.69;;;9.63;100.0
22775;BME280;11554;51.106;3.684;2023-02-18T23:30:00;102015.94;;;9.61;100.0
22775;BME280;11554;51.106;3.684;2023-02-18T23:35:00;102007.89;;;9.59;100.0
22775;BME280;11554;51.106;3.684;2023-02-18T23:40:00;102017.08;;;9.56;100.0
22775;BME280;11554;51.106;3.684;2023-02-18T23:45:00;102021.89;;;9.52;100.0
22775;BME280;11554;51.106;3.684;2023-02-18T23:50:00;102025.57;;;9.49;100.0
22775;BME280;11554;51.106;3.684;2023-02-18T23:55:00;102026.45;;;9.46;100.0
